Time;durP1;ratioP1;P1;durP2;ratioP2;P2;SDS_P1;SDS_P2;PMS_P1;PMS_P2;Temp;Humidity;BMP_temperature;BMP_pressure;BME280_temperature;BME280_humidity;BME280_pressure;Samples;Min_cycle;Max_cycle;Signal;HPM_P1;HPM_P2
2021/05/04 00:00:42;;;;;;;7.47;5.50;;;10.70;67.90;;;;;;5071752;28;20043;-67
2021/05/04 00:03:08;;;;;;;6.50;4.93;;;10.70;67.20;;;;;;5079843;28;20040;-67
2021/05/04 00:05:33;;;;;;;6.72;6.13;;;10.80;67.20;;;;;;5072389;28;20067;-67
2021/05/04 00:07:59;;;;;;;8.50;6.63;;;11.00;66.60;;;;;;5071774;28;20032;-67
2021/05/04 00:10:25;;;;;;;7.63;6.53;;;10.90;67.30;;;;;;5083974;28;20039;-67
2021/05/04 00:12:51;;;;;;;6.82;5.68;;;10.80;68.60;;;;;;5070523;28;20510;-67
2021/05/04 00:15:17;;;;;;;7.18;6.00;;;10.80;67.60;;;;;;5071985;28;20522;-67
2021/05/04 00:18:00;;;;;;;7.28;6.57;;;10.70;67.90;;;;;;5074664;28;20060;-67
2021/05/04 00:20:26;;;;;;;6.85;5.95;;;10.70;68.10;;;;;;5074303;28;20037;-67
2021/05/04 00:22:52;;;;;;;7.15;5.53;;;10.60;68.60;;;;;;5083018;28;20054;-67
2021/05/04 00:25:18;;;;;;;9.00;5.88;;;10.60;68.30;;;;;;5075214;28;20399;-67
2021/05/04 00:27:44;;;;;;;5.32;4.82;;;10.50;69.50;;;;;;5076348;28;20044;-67
2021/05/04 00:30:11;;;;;;;6.63;6.03;;;10.50;69.30;;;;;;5068995;28;20033;-66
2021/05/04 00:32:36;;;;;;;5.55;5.03;;;10.50;70.50;;;;;;5066890;28;20028;-67
2021/05/04 00:35:02;;;;;;;5.95;5.30;;;10.50;70.70;;;;;;5073082;28;20094;-67
2021/05/04 00:37:28;;;;;;;5.55;5.05;;;10.50;70.50;;;;;;5071702;28;20426;-67
2021/05/04 00:39:53;;;;;;;6.32;5.43;;;10.50;70.20;;;;;;5087836;28;20067;-67
2021/05/04 00:42:23;;;;;;;5.25;4.75;;;10.40;70.70;;;;;;5069856;28;20032;-67
2021/05/04 00:44:49;;;;;;;6.38;4.80;;;10.40;72.20;;;;;;5071512;28;20040;-67
2021/05/04 00:47:14;;;;;;;5.57;5.07;;;10.40;70.90;;;;;;5068535;28;20037;-67
2021/05/04 00:49:40;;;;;;;6.15;4.57;;;10.30;72.20;;;;;;5069550;28;20033;-67
2021/05/04 00:52:06;;;;;;;5.50;5.00;;;10.40;71.30;;;;;;5078519;28;20064;-67
2021/05/04 00:54:32;;;;;;;5.40;4.57;;;10.40;70.80;;;;;;5087315;28;20036;-66
2021/05/04 00:56:58;;;;;;;6.53;4.65;;;10.40;71.00;;;;;;5079081;28;20048;-67
2021/05/04 00:59:25;;;;;;;7.03;4.68;;;10.40;71.80;;;;;;5077624;28;20036;-67
2021/05/04 01:01:54;;;;;;;7.25;4.30;;;10.30;72.70;;;;;;5069264;28;20067;-67
2021/05/04 01:04:21;;;;;;;5.43;4.93;;;10.40;70.80;;;;;;5081329;28;20513;-67
2021/05/04 01:06:48;;;;;;;5.18;4.70;;;10.30;72.50;;;;;;5065895;28;20079;-66
2021/05/04 01:09:18;;;;;;;6.32;5.50;;;10.20;72.70;;;;;;5073639;28;20111;-66
2021/05/04 01:11:45;;;;;;;7.32;5.20;;;10.20;75.80;;;;;;5088201;28;20032;-66
2021/05/04 01:14:12;;;;;;;4.95;4.55;;;10.10;74.30;;;;;;5069341;28;20074;-66
2021/05/04 01:16:49;;;;;;;6.28;5.68;;;10.10;75.70;;;;;;5075642;28;20037;-67
2021/05/04 01:19:18;;;;;;;6.75;6.15;;;10.00;75.10;;;;;;5071726;28;20049;-66
2021/05/04 01:21:44;;;;;;;6.10;5.60;;;10.00;76.40;;;;;;5080684;28;20418;-67
2021/05/04 01:24:11;;;;;;;6.63;6.13;;;9.90;76.30;;;;;;5074823;28;20041;-67
2021/05/04 01:26:39;;;;;;;6.40;5.75;;;9.80;78.30;;;;;;5075323;28;20040;-67
2021/05/04 01:29:05;;;;;;;7.13;5.25;;;9.90;75.40;;;;;;5076830;28;20045;-67
2021/05/04 01:31:31;;;;;;;10.93;5.70;;;9.80;77.40;;;;;;5071685;28;20134;-67
2021/05/04 01:33:56;;;;;;;7.47;6.78;;;9.70;76.60;;;;;;5087064;28;20081;-67
2021/05/04 01:36:22;;;;;;;5.85;5.30;;;9.70;75.80;;;;;;5070467;28;20041;-67
2021/05/04 01:38:48;;;;;;;7.05;6.45;;;9.60;79.00;;;;;;5071969;28;20438;-67
2021/05/04 01:41:13;;;;;;;7.03;6.40;;;9.60;79.10;;;;;;5072853;28;20106;-66
2021/05/04 01:43:39;;;;;;;7.15;6.45;;;9.40;80.00;;;;;;5071591;28;20111;-67
2021/05/04 01:46:05;;;;;;;7.13;6.53;;;9.40;82.60;;;;;;5071848;28;20040;-67
2021/05/04 01:48:30;;;;;;;9.07;6.82;;;9.30;80.20;;;;;;5075700;28;20394;-67
2021/05/04 01:50:56;;;;;;;8.52;7.05;;;9.30;81.80;;;;;;5073277;28;20085;-67
2021/05/04 01:53:22;;;;;;;7.90;7.10;;;9.20;81.70;;;;;;5071440;28;20044;-67
2021/05/04 01:55:47;;;;;;;8.07;7.30;;;9.20;82.10;;;;;;5072501;28;20056;-67
2021/05/04 01:58:13;;;;;;;7.88;7.03;;;9.10;82.40;;;;;;5071468;28;20491;-66
2021/05/04 02:00:39;;;;;;;7.78;7.00;;;9.10;83.10;;;;;;5079742;28;20049;-66
2021/05/04 02:03:05;;;;;;;7.18;6.57;;;9.10;82.60;;;;;;5072952;28;20063;-66
2021/05/04 02:05:30;;;;;;;8.75;7.63;;;9.10;81.90;;;;;;5081421;28;20044;-66
2021/05/04 02:07:56;;;;;;;7.05;6.35;;;9.10;84.80;;;;;;5073038;28;20082;-66
2021/05/04 02:10:22;;;;;;;6.88;6.13;;;9.00;83.80;;;;;;5073113;28;20399;-67
2021/05/04 02:12:48;;;;;;;7.22;5.43;;;9.10;79.00;;;;;;5077444;28;20049;-66
2021/05/04 02:15:14;;;;;;;7.68;6.70;;;9.10;79.20;;;;;;5070254;28;20082;-66
2021/05/04 02:17:40;;;;;;;7.40;6.78;;;9.00;84.50;;;;;;5073622;28;20044;-67
2021/05/04 02:20:06;;;;;;;9.13;6.63;;;9.00;85.60;;;;;;5080432;28;20106;-67
2021/05/04 02:22:33;;;;;;;6.53;5.93;;;9.00;83.40;;;;;;5070948;28;20074;-66
2021/05/04 02:25:00;;;;;;;7.03;5.68;;;8.90;85.50;;;;;;5080388;28;20040;-66
2021/05/04 02:27:25;;;;;;;9.40;6.93;;;8.90;82.20;;;;;;5070278;28;20044;-67
2021/05/04 02:29:51;;;;;;;7.00;6.30;;;8.90;83.80;;;;;;5071354;28;20032;-67
2021/05/04 02:32:17;;;;;;;8.52;6.35;;;8.80;86.50;;;;;;5072999;28;20040;-67
2021/05/04 02:34:42;;;;;;;7.05;5.97;;;8.80;83.30;;;;;;5070766;28;20044;-67
2021/05/04 02:37:08;;;;;;;6.85;6.03;;;8.80;82.40;;;;;;5090288;28;20090;-67
2021/05/04 02:39:34;;;;;;;7.32;4.78;;;8.80;84.90;;;;;;5082971;28;20040;-67
2021/05/04 02:41:59;;;;;;;8.75;6.65;;;8.80;82.70;;;;;;5070493;28;20075;-67
2021/05/04 02:44:25;;;;;;;6.50;5.22;;;8.90;83.30;;;;;;5079295;28;20036;-67
2021/05/04 02:46:50;;;;;;;5.63;5.13;;;8.80;85.50;;;;;;5079707;28;20044;-67
2021/05/04 02:49:16;;;;;;;6.20;5.10;;;8.80;81.60;;;;;;5076744;28;20543;-67
2021/05/04 02:51:45;;;;;;;6.45;4.97;;;8.70;86.00;;;;;;5081569;28;20593;-67
2021/05/04 02:54:10;;;;;;;7.22;5.53;;;8.70;81.00;;;;;;5069106;28;20036;-67
2021/05/04 02:56:37;;;;;;;6.50;5.72;;;8.70;86.80;;;;;;5071214;28;20056;-67
2021/05/04 02:59:03;;;;;;;5.60;5.15;;;8.80;85.30;;;;;;5071636;28;20043;-67
2021/05/04 03:01:28;;;;;;;7.18;5.28;;;8.80;82.80;;;;;;5070361;28;20056;-67
2021/05/04 03:03:54;;;;;;;6.20;5.40;;;8.80;81.40;;;;;;5070877;28;20450;-67
2021/05/04 03:06:20;;;;;;;4.93;4.50;;;8.80;81.40;;;;;;5069666;28;20426;-67
2021/05/04 03:08:46;;;;;;;5.93;5.18;;;8.80;80.40;;;;;;5071368;28;20044;-67
2021/05/04 03:11:11;;;;;;;5.10;4.05;;;8.80;86.70;;;;;;5077645;28;20047;-67
2021/05/04 03:13:37;;;;;;;4.60;4.20;;;8.80;81.40;;;;;;5069931;28;20132;-67
2021/05/04 03:16:03;;;;;;;6.72;4.68;;;8.90;81.40;;;;;;5069929;28;20067;-67
2021/05/04 03:18:29;;;;;;;4.63;4.30;;;8.80;86.80;;;;;;5069350;28;20394;-67
2021/05/04 03:20:55;;;;;;;5.75;4.20;;;8.90;81.60;;;;;;5088954;22;20059;-67
2021/05/04 03:23:21;;;;;;;6.38;4.45;;;8.80;82.10;;;;;;5078170;28;20040;-67
2021/05/04 03:25:48;;;;;;;5.57;4.53;;;8.80;84.10;;;;;;5073848;28;20067;-67
2021/05/04 03:28:14;;;;;;;6.13;4.60;;;8.80;86.00;;;;;;5064197;28;20032;-67
2021/05/04 03:30:40;;;;;;;6.10;4.45;;;8.80;87.10;;;;;;5071384;28;20183;-67
2021/05/04 03:33:06;;;;;;;5.82;4.72;;;8.80;84.00;;;;;;5067991;28;20111;-67
2021/05/04 03:35:33;;;;;;;6.25;4.90;;;8.80;85.00;;;;;;5071558;28;20932;-67
2021/05/04 03:37:59;;;;;;;5.72;4.88;;;8.70;89.20;;;;;;5061982;28;20085;-67
2021/05/04 03:40:24;;;;;;;5.15;4.40;;;8.70;88.40;;;;;;5079539;28;20044;-67
2021/05/04 03:42:50;;;;;;;6.43;4.93;;;8.70;88.70;;;;;;5071400;28;20055;-67
2021/05/04 03:45:16;;;;;;;4.53;3.88;;;8.60;87.00;;;;;;5086104;28;20042;-67
2021/05/04 03:47:43;;;;;;;5.90;4.78;;;8.70;84.20;;;;;;5070026;28;20498;-67
2021/05/04 03:50:15;;;;;;;5.93;4.30;;;8.70;84.20;;;;;;5069289;28;20128;-67
2021/05/04 03:52:41;;;;;;;8.20;4.63;;;8.70;83.60;;;;;;5062228;28;20573;-67
2021/05/04 03:55:08;;;;;;;5.50;4.47;;;8.80;84.70;;;;;;5087008;28;20534;-67
2021/05/04 03:57:34;;;;;;;10.27;4.70;;;8.80;83.30;;;;;;5068991;28;20072;-67
2021/05/04 04:00:00;;;;;;;5.88;5.07;;;8.80;87.20;;;;;;5075084;28;20071;-67
2021/05/04 04:02:26;;;;;;;7.68;4.28;;;8.80;83.80;;;;;;5072626;28;20131;-67
2021/05/04 04:04:52;;;;;;;5.25;4.57;;;8.80;85.50;;;;;;5072073;28;20586;-67
2021/05/04 04:07:18;;;;;;;6.57;4.68;;;8.70;82.50;;;;;;5084746;28;20047;-67
2021/05/04 04:09:43;;;;;;;5.40;4.88;;;8.70;89.40;;;;;;5080333;28;20043;-67
2021/05/04 04:12:09;;;;;;;5.40;4.93;;;8.70;87.20;;;;;;5077264;28;20063;-66
2021/05/04 04:14:35;;;;;;;7.63;3.80;;;8.70;84.40;;;;;;5064576;28;20037;-67
2021/05/04 04:17:00;;;;;;;4.22;3.83;;;8.90;83.10;;;;;;5068926;28;20078;-67
2021/05/04 04:19:27;;;;;;;4.22;3.70;;;8.80;82.50;;;;;;5077647;28;20060;-67
2021/05/04 04:21:52;;;;;;;4.85;4.32;;;8.80;84.70;;;;;;5069456;28;20037;-67
2021/05/04 04:24:18;;;;;;;5.90;4.72;;;8.90;86.90;;;;;;5070193;28;20112;-67
2021/05/04 04:26:44;;;;;;;4.78;3.85;;;8.80;89.70;;;;;;5069416;28;20044;-67
2021/05/04 04:29:10;;;;;;;5.93;4.30;;;8.80;89.60;;;;;;5057626;28;20085;-67
2021/05/04 04:31:36;;;;;;;7.15;2.70;;;8.80;88.40;;;;;;5075315;28;20066;-67
2021/05/04 04:34:01;;;;;;;4.65;4.00;;;8.80;82.30;;;;;;5068332;28;20032;-67
2021/05/04 04:36:27;;;;;;;6.15;4.13;;;8.90;85.00;;;;;;5073673;28;20048;-67
2021/05/04 04:38:53;;;;;;;5.95;3.80;;;9.00;87.60;;;;;;5068508;28;20036;-66
2021/05/04 04:41:18;;;;;;;4.30;3.90;;;9.10;83.80;;;;;;5069168;28;20475;-67
2021/05/04 04:43:44;;;;;;;4.00;3.60;;;9.10;82.90;;;;;;5074233;28;20115;-67
2021/05/04 04:46:10;;;;;;;4.28;3.88;;;9.00;80.00;;;;;;5076152;28;20667;-67
2021/05/04 04:48:35;;;;;;;5.60;3.97;;;9.00;83.60;;;;;;5068945;28;20074;-66
2021/05/04 04:51:01;;;;;;;5.50;4.35;;;9.00;85.80;;;;;;5069536;28;20111;-66
2021/05/04 04:53:27;;;;;;;4.18;3.88;;;9.00;86.10;;;;;;5070094;28;20455;-66
2021/05/04 04:55:53;;;;;;;4.85;4.35;;;8.90;85.80;;;;;;5076072;28;20047;-66
2021/05/04 04:58:19;;;;;;;4.75;3.95;;;8.90;85.50;;;;;;5075710;28;20042;-66
2021/05/04 05:00:44;;;;;;;4.47;4.07;;;8.90;85.30;;;;;;5055822;28;20051;-66
2021/05/04 05:03:10;;;;;;;5.15;3.80;;;8.90;84.20;;;;;;5053445;28;20089;-67
2021/05/04 05:05:35;;;;;;;4.18;3.80;;;8.90;81.70;;;;;;5067680;28;20101;-66
2021/05/04 05:08:01;;;;;;;4.43;4.03;;;9.00;84.50;;;;;;5076306;28;20570;-66
2021/05/04 05:10:27;;;;;;;7.63;4.88;;;9.00;86.50;;;;;;5070278;28;20619;-67
2021/05/04 05:12:53;;;;;;;4.40;4.03;;;9.00;86.30;;;;;;5092738;28;20063;-68
2021/05/04 05:15:19;;;;;;;4.45;4.10;;;9.00;82.20;;;;;;5078601;28;20040;-66
2021/05/04 05:17:46;;;;;;;5.35;4.18;;;9.00;86.50;;;;;;5073802;28;20041;-66
2021/05/04 05:20:13;;;;;;;4.57;4.18;;;9.00;88.60;;;;;;5071547;28;20103;-66
2021/05/04 05:22:39;;;;;;;6.38;4.30;;;9.00;88.00;;;;;;5088267;28;20037;-66
2021/05/04 05:25:05;;;;;;;5.32;4.05;;;8.90;85.70;;;;;;5079565;28;20036;-66
2021/05/04 05:27:33;;;;;;;5.25;4.28;;;8.90;87.80;;;;;;5080040;28;20070;-66
2021/05/04 05:29:59;;;;;;;5.55;5.07;;;8.90;87.60;;;;;;5071756;28;20040;-66
2021/05/04 05:32:24;;;;;;;4.78;4.25;;;8.90;90.40;;;;;;5072101;28;20085;-66
2021/05/04 05:34:50;;;;;;;5.35;4.60;;;8.80;90.60;;;;;;5072985;28;20037;-66
2021/05/04 05:37:16;;;;;;;5.07;4.50;;;8.80;88.10;;;;;;5073485;28;20032;-66
2021/05/04 05:39:44;;;;;;;5.80;5.20;;;8.80;90.70;;;;;;5070795;28;20127;-66
2021/05/04 05:42:11;;;;;;;5.65;3.78;;;8.70;90.60;;;;;;5070647;28;20140;-66
2021/05/04 05:44:37;;;;;;;3.63;2.95;;;8.80;89.90;;;;;;5072605;28;20101;-66
2021/05/04 05:47:03;;;;;;;5.43;4.20;;;8.90;88.30;;;;;;5084913;28;20501;-66
2021/05/04 05:49:29;;;;;;;6.05;3.60;;;8.90;88.10;;;;;;5077564;28;20268;-66
2021/05/04 05:51:55;;;;;;;5.75;3.55;;;8.80;86.60;;;;;;5079244;28;20099;-66
2021/05/04 05:54:20;;;;;;;5.82;4.20;;;8.90;84.90;;;;;;5078893;28;20044;-66
2021/05/04 05:56:46;;;;;;;8.45;6.25;;;8.90;89.00;;;;;;5076277;28;20134;-66
2021/05/04 05:59:12;;;;;;;7.07;5.25;;;8.90;90.50;;;;;;5080501;28;20044;-66
2021/05/04 06:01:37;;;;;;;6.05;4.38;;;8.90;89.70;;;;;;5078108;28;20028;-66
2021/05/04 06:04:03;;;;;;;4.05;2.90;;;9.00;87.50;;;;;;5082810;28;20051;-66
2021/05/04 06:06:29;;;;;;;6.70;4.40;;;9.10;87.30;;;;;;5085531;28;20066;-66
2021/05/04 06:08:54;;;;;;;6.85;4.30;;;9.20;87.80;;;;;;5072167;28;20485;-67
2021/05/04 06:11:20;;;;;;;10.00;4.10;;;9.20;90.40;;;;;;5073262;28;20032;-67
2021/05/04 06:13:46;;;;;;;7.28;3.72;;;9.20;88.90;;;;;;5067189;28;20039;-67
2021/05/04 06:16:11;;;;;;;6.68;4.50;;;9.30;86.70;;;;;;5054302;28;20047;-66
2021/05/04 06:18:37;;;;;;;4.88;3.55;;;9.40;89.30;;;;;;5074287;28;20443;-66
2021/05/04 06:21:03;;;;;;;4.85;4.10;;;9.40;86.30;;;;;;5079000;28;20052;-67
2021/05/04 06:23:29;;;;;;;4.95;3.85;;;9.50;86.00;;;;;;5085041;28;20032;-67
2021/05/04 06:25:55;;;;;;;4.97;4.30;;;9.60;83.20;;;;;;5052098;28;20049;-67
2021/05/04 06:28:21;;;;;;;7.25;3.60;;;9.60;85.00;;;;;;5052696;28;20071;-67
2021/05/04 06:30:47;;;;;;;3.75;2.92;;;9.70;85.20;;;;;;5070843;28;20048;-67
2021/05/04 06:33:14;;;;;;;3.45;2.72;;;9.90;82.40;;;;;;5061460;28;20048;-67
2021/05/04 06:35:42;;;;;;;4.70;2.88;;;9.90;87.20;;;;;;5092229;28;20050;-67
2021/05/04 06:38:12;;;;;;;7.82;4.60;;;9.90;85.80;;;;;;5086564;28;20039;-67
2021/05/04 06:40:39;;;;;;;3.45;2.80;;;10.00;84.40;;;;;;5054058;28;20325;-66
2021/05/04 06:43:04;;;;;;;4.85;2.97;;;10.20;84.10;;;;;;5070340;28;20044;-66
2021/05/04 06:45:30;;;;;;;5.55;3.15;;;10.20;85.60;;;;;;5084134;28;20037;-66
2021/05/04 06:47:56;;;;;;;4.07;3.00;;;10.10;82.70;;;;;;5070992;28;20103;-66
2021/05/04 06:50:22;;;;;;;3.58;2.75;;;10.20;81.10;;;;;;5070763;28;20032;-66
2021/05/04 06:52:47;;;;;;;6.07;3.47;;;10.10;84.20;;;;;;5071121;28;20043;-68
2021/05/04 06:55:13;;;;;;;2.67;2.47;;;10.20;81.50;;;;;;5075784;28;20052;-66
2021/05/04 06:57:39;;;;;;;5.57;3.80;;;10.10;82.90;;;;;;5085167;28;20044;-66
2021/05/04 07:00:07;;;;;;;5.15;3.67;;;10.00;82.50;;;;;;5076316;28;20092;-68
2021/05/04 07:02:34;;;;;;;5.47;2.63;;;9.90;83.20;;;;;;5068526;28;20037;-69
2021/05/04 07:05:00;;;;;;;5.55;2.75;;;10.00;79.70;;;;;;5052241;28;20045;-68
2021/05/04 07:07:26;;;;;;;5.57;3.38;;;10.00;83.80;;;;;;5052832;28;20052;-68
2021/05/04 07:09:51;;;;;;;7.53;3.70;;;10.00;87.90;;;;;;5069105;28;20032;-68
2021/05/04 07:12:17;;;;;;;8.52;3.25;;;10.20;82.50;;;;;;5070693;28;20037;-68
2021/05/04 07:14:43;;;;;;;4.05;1.67;;;10.40;84.50;;;;;;5070162;28;20391;-68
2021/05/04 07:17:08;;;;;;;10.60;2.88;;;11.10;76.80;;;;;;5070897;28;20071;-68
2021/05/04 07:19:37;;;;;;;6.20;2.92;;;11.50;79.20;;;;;;5050357;28;20053;-68
2021/05/04 07:22:07;;;;;;;7.78;3.13;;;11.60;76.60;;;;;;5053157;28;20040;-68
2021/05/04 07:24:32;;;;;;;7.47;2.63;;;11.70;79.70;;;;;;5067368;28;20033;-68
2021/05/04 07:26:58;;;;;;;8.70;2.78;;;11.70;77.30;;;;;;5070860;28;20044;-68
2021/05/04 07:29:24;;;;;;;12.43;2.85;;;11.60;76.80;;;;;;5070764;28;20533;-68
2021/05/04 07:31:49;;;;;;;12.75;3.45;;;11.50;75.80;;;;;;5052415;28;20784;-68
2021/05/04 07:34:15;;;;;;;6.13;2.33;;;11.30;75.90;;;;;;5079581;28;20040;-68
2021/05/04 07:36:41;;;;;;;6.60;2.25;;;11.10;78.70;;;;;;5064577;28;20090;-68
2021/05/04 07:39:06;;;;;;;7.90;3.15;;;11.00;79.00;;;;;;5064586;28;20039;-67
2021/05/04 07:41:32;;;;;;;10.27;2.20;;;11.00;79.00;;;;;;5069081;28;20032;-67
2021/05/04 07:43:58;;;;;;;11.52;2.92;;;11.10;76.20;;;;;;5076710;28;20036;-68
2021/05/04 07:46:24;;;;;;;10.05;3.08;;;11.20;79.20;;;;;;5069218;28;20093;-68
2021/05/04 07:48:50;;;;;;;10.05;3.08;;;11.20;83.20;;;;;;5074657;28;20486;-67
2021/05/04 07:51:15;;;;;;;14.00;2.75;;;11.40;78.50;;;;;;5068739;28;20032;-68
2021/05/04 07:53:41;;;;;;;11.63;3.15;;;11.60;75.90;;;;;;5047794;28;20044;-67
2021/05/04 07:56:07;;;;;;;11.15;2.92;;;11.60;79.30;;;;;;5072123;28;20067;-68
2021/05/04 07:58:32;;;;;;;11.35;3.03;;;11.60;76.60;;;;;;5079790;28;20064;-67
2021/05/04 08:00:58;;;;;;;12.68;2.83;;;11.30;82.00;;;;;;5068479;28;20028;-68
2021/05/04 08:03:24;;;;;;;9.35;2.50;;;11.20;77.60;;;;;;5069451;28;20090;-68
2021/05/04 08:05:50;;;;;;;12.05;3.35;;;11.10;78.90;;;;;;5069407;28;20045;-68
2021/05/04 08:08:16;;;;;;;11.60;2.58;;;11.10;77.60;;;;;;5042228;28;20115;-68
2021/05/04 08:10:42;;;;;;;8.50;2.15;;;11.20;79.90;;;;;;5062244;28;20035;-67
2021/05/04 08:13:08;;;;;;;11.35;3.33;;;11.30;77.30;;;;;;5065924;28;20040;-69
2021/05/04 08:15:35;;;;;;;10.88;3.65;;;11.40;77.40;;;;;;5065173;28;20486;-67
2021/05/04 08:18:04;;;;;;;16.20;3.17;;;11.30;78.10;;;;;;5072637;28;20065;-68
2021/05/04 08:20:31;;;;;;;11.07;3.53;;;11.30;79.20;;;;;;5061121;28;20044;-68
2021/05/04 08:22:59;;;;;;;13.10;3.00;;;11.40;79.20;;;;;;5073246;28;20105;-68
2021/05/04 08:25:25;;;;;;;11.57;3.05;;;11.60;77.10;;;;;;5070419;28;20029;-68
2021/05/04 08:27:51;;;;;;;10.43;2.95;;;11.80;76.10;;;;;;5063122;28;20042;-68
2021/05/04 08:30:17;;;;;;;10.13;2.88;;;12.00;75.80;;;;;;5072514;28;20406;-68
2021/05/04 08:32:43;;;;;;;12.88;2.70;;;12.30;76.20;;;;;;5065788;28;20432;-68
2021/05/04 08:35:09;;;;;;;11.35;3.22;;;12.50;77.50;;;;;;5068774;28;20312;-68
2021/05/04 08:37:35;;;;;;;10.60;2.90;;;12.80;74.80;;;;;;5068985;28;20372;-68
2021/05/04 08:40:00;;;;;;;10.32;2.67;;;12.80;75.00;;;;;;5076823;28;20032;-67
2021/05/04 08:42:26;;;;;;;13.40;3.15;;;12.80;72.40;;;;;;5064998;28;20037;-67
2021/05/04 08:44:52;;;;;;;9.27;2.67;;;12.90;75.00;;;;;;5063709;28;20136;-67
2021/05/04 08:47:22;;;;;;;7.28;2.28;;;13.20;70.80;;;;;;5068767;28;20028;-68
2021/05/04 08:49:49;;;;;;;7.55;2.10;;;13.30;71.80;;;;;;5069040;28;20037;-68
2021/05/04 08:52:16;;;;;;;5.85;1.80;;;13.40;69.70;;;;;;5080896;28;20031;-68
2021/05/04 08:54:42;;;;;;;7.57;2.20;;;13.40;70.00;;;;;;5069281;28;20047;-68
2021/05/04 08:57:07;;;;;;;6.82;2.10;;;13.30;69.00;;;;;;5069563;28;20032;-68
2021/05/04 08:59:33;;;;;;;11.18;2.80;;;13.20;67.50;;;;;;5078131;28;20044;-68
2021/05/04 09:01:59;;;;;;;7.13;2.25;;;12.90;69.30;;;;;;5068658;28;20038;-68
2021/05/04 09:04:48;;;;;;;8.75;2.55;;;12.80;69.50;;;;;;5079104;28;20048;-67
2021/05/04 09:10:20;;;;;;;7.70;2.00;;;12.80;71.20;;;;;;5066088;28;20044;-64
2021/05/04 09:15:33;;;;;;;6.13;1.50;;;12.20;72.40;;;;;;5072599;28;20520;-64
2021/05/04 09:18:06;;;;;;;7.00;1.45;;;12.00;74.30;;;;;;5054626;28;20068;-65
2021/05/04 09:20:59;;;;;;;7.75;1.98;;;12.20;73.70;;;;;;5063589;28;20570;-65
2021/05/04 09:23:27;;;;;;;6.38;1.73;;;12.10;75.70;;;;;;5071738;28;20041;-66
2021/05/04 09:25:54;;;;;;;4.55;1.65;;;12.40;75.60;;;;;;5064863;28;20041;-65
2021/05/04 09:28:20;;;;;;;5.07;1.38;;;12.50;74.00;;;;;;5067084;28;20040;-64
2021/05/04 09:30:55;;;;;;;4.57;1.70;;;12.70;70.90;;;;;;5073049;28;20071;-65
2021/05/04 09:33:21;;;;;;;10.23;1.70;;;12.80;72.90;;;;;;5066067;28;20115;-65
2021/05/04 09:35:47;;;;;;;5.05;1.90;;;12.90;72.00;;;;;;5067541;28;20107;-65
2021/05/04 09:38:14;;;;;;;3.47;1.40;;;13.00;72.30;;;;;;5081720;28;20471;-65
2021/05/04 09:40:42;;;;;;;4.22;1.45;;;13.20;70.40;;;;;;5081408;28;20116;-65
2021/05/04 09:43:14;;;;;;;6.82;1.48;;;13.40;71.30;;;;;;5064329;28;20040;-65
2021/05/04 09:45:51;;;;;;;6.60;1.70;;;13.30;70.10;;;;;;5076265;28;20044;-65
2021/05/04 09:48:20;;;;;;;4.78;1.60;;;13.10;71.60;;;;;;5082934;28;20431;-64
2021/05/04 09:51:12;;;;;;;3.88;1.65;;;12.90;74.50;;;;;;5083436;28;20040;-65
2021/05/04 09:53:44;;;;;;;4.43;1.65;;;13.10;69.20;;;;;;5072024;28;20158;-64
2021/05/04 09:56:14;;;;;;;6.07;2.00;;;13.00;73.10;;;;;;5062429;28;20190;-65
2021/05/04 09:58:49;;;;;;;6.68;1.73;;;13.00;72.70;;;;;;5074537;28;20036;-65
2021/05/04 10:01:17;;;;;;;7.60;2.60;;;13.20;69.80;;;;;;5074349;28;20052;-65
2021/05/04 10:03:45;;;;;;;6.30;1.65;;;13.30;72.50;;;;;;5070303;28;20043;-65
2021/05/04 10:06:13;;;;;;;4.78;1.85;;;13.50;69.10;;;;;;5072556;28;20040;-65
2021/05/04 10:08:40;;;;;;;8.65;2.63;;;13.60;68.40;;;;;;5071380;28;20531;-65
2021/05/04 10:11:11;;;;;;;5.90;1.85;;;13.60;72.10;;;;;;5068946;28;20421;-65
2021/05/04 10:13:40;;;;;;;5.47;1.60;;;13.80;69.30;;;;;;5073903;28;20158;-64
2021/05/04 10:16:07;;;;;;;8.40;2.05;;;13.80;67.50;;;;;;5071134;28;20041;-65
2021/05/04 10:18:33;;;;;;;5.15;1.55;;;13.90;67.80;;;;;;5056476;28;20033;-65
2021/05/04 10:21:02;;;;;;;4.03;1.27;;;13.90;66.70;;;;;;5070683;28;20048;-66
2021/05/04 10:23:29;;;;;;;8.75;2.53;;;13.80;67.00;;;;;;5070614;28;20028;-67
2021/05/04 10:26:17;;;;;;;5.55;1.88;;;13.50;69.30;;;;;;5089365;28;20099;-67
2021/05/04 10:28:52;;;;;;;12.18;2.05;;;13.30;69.90;;;;;;5071968;28;20070;-67
2021/05/04 10:31:31;;;;;;;4.70;1.80;;;12.90;73.00;;;;;;5071495;28;20032;-68
2021/05/04 10:34:16;;;;;;;7.57;1.80;;;12.40;75.20;;;;;;5073020;28;20064;-68
2021/05/04 10:36:42;;;;;;;3.05;0.93;;;12.00;74.20;;;;;;5053738;28;20049;-68
2021/05/04 10:39:08;;;;;;;4.57;1.73;;;12.00;75.90;;;;;;5071812;28;20047;-68
2021/05/04 10:41:54;;;;;;;5.43;1.63;;;12.00;76.50;;;;;;5070443;28;20498;-68
2021/05/04 10:44:20;;;;;;;8.55;1.92;;;11.90;79.20;;;;;;5055260;28;20399;-68
2021/05/04 10:46:46;;;;;;;4.30;1.38;;;11.90;77.10;;;;;;5070647;28;20048;-68
2021/05/04 10:49:18;;;;;;;1.58;0.90;;;11.80;76.40;;;;;;5070617;28;20044;-67
2021/05/04 10:51:49;;;;;;;;;;;11.80;73.90;;;;;;5058273;28;20040;-67
2021/05/04 10:54:16;;;;;;;2.88;0.68;;;11.60;74.70;;;;;;5073151;28;20276;-67
2021/05/04 10:56:46;;;;;;;1.98;0.60;;;11.60;74.20;;;;;;5081758;28;20085;-67
2021/05/04 10:59:37;;;;;;;1.77;0.70;;;11.60;74.80;;;;;;5074487;28;20112;-68
2021/05/04 11:02:09;;;;;;;4.13;0.80;;;11.50;75.10;;;;;;5072365;28;20510;-68
2021/05/04 11:04:42;;;;;;;2.90;1.25;;;11.40;77.20;;;;;;5091589;28;20093;-68
2021/05/04 11:07:08;;;;;;;4.40;1.60;;;11.50;77.70;;;;;;5075764;28;20036;-67
2021/05/04 11:09:40;;;;;;;3.30;1.40;;;11.50;76.30;;;;;;5073182;28;20032;-66
2021/05/04 11:12:09;;;;;;;1.65;0.88;;;11.60;76.60;;;;;;5062706;28;20044;-66
2021/05/04 11:14:41;;;;;;;2.75;1.13;;;11.80;74.20;;;;;;5052802;28;20039;-66
2021/05/04 11:17:11;;;;;;;;;;;11.90;74.70;;;;;;5073789;28;20122;-66
2021/05/04 11:19:41;;;;;;;4.38;1.00;;;11.90;74.60;;;;;;5070688;28;19916;-66
2021/05/04 11:22:15;;;;;;;4.70;1.30;;;12.00;75.00;;;;;;5070437;28;20050;-66
2021/05/04 11:24:48;;;;;;;4.53;1.30;;;12.20;74.40;;;;;;5069839;28;20043;-66
2021/05/04 11:27:29;;;;;;;4.75;1.00;;;12.50;76.50;;;;;;5056730;28;20037;-66
2021/05/04 11:29:58;;;;;;;1.35;1.17;;;12.70;71.70;;;;;;5069168;28;20036;-66
2021/05/04 11:32:41;;;;;;;4.78;0.93;;;12.70;71.10;;;;;;5079663;28;20097;-67
2021/05/04 11:35:09;;;;;;;2.03;0.77;;;12.40;70.20;;;;;;5072529;28;20483;-67
2021/05/04 11:37:38;;;;;;;2.55;0.80;;;11.80;72.40;;;;;;5070195;28;20086;-68
2021/05/04 11:40:25;;;;;;;1.33;0.70;;;11.30;73.90;;;;;;5079541;28;20109;-68
2021/05/04 11:42:52;;;;;;;2.05;0.80;;;10.80;76.30;;;;;;5076198;28;20043;-67
2021/05/04 11:45:24;;;;;;;6.43;1.50;;;10.70;76.90;;;;;;5073802;28;20029;-68
2021/05/04 11:47:51;;;;;;;2.67;0.90;;;10.60;77.70;;;;;;5048886;28;20120;-67
2021/05/04 11:50:30;;;;;;;2.67;0.80;;;10.40;78.70;;;;;;5053516;28;20032;-68
2021/05/04 11:53:00;;;;;;;1.63;0.73;;;10.50;80.60;;;;;;5067583;28;20036;-67
2021/05/04 11:55:29;;;;;;;4.60;1.00;;;10.70;78.20;;;;;;5078297;28;20063;-68
2021/05/04 11:57:59;;;;;;;1.98;0.70;;;10.90;78.00;;;;;;5071312;28;20036;-68
2021/05/04 12:00:26;;;;;;;3.03;0.82;;;11.10;77.60;;;;;;5071660;28;20028;-68
2021/05/04 12:02:52;;;;;;;4.40;1.00;;;11.20;77.70;;;;;;5069560;28;20090;-68
2021/05/04 12:05:24;;;;;;;1.65;1.13;;;11.20;75.10;;;;;;5068655;28;20114;-68
2021/05/04 12:07:50;;;;;;;0.85;0.73;;;11.00;78.40;;;;;;5069736;28;20051;-68
2021/05/04 12:10:16;;;;;;;0.98;0.82;;;10.90;76.20;;;;;;5066211;28;20036;-68
2021/05/04 12:12:44;;;;;;;0.57;0.57;;;10.50;78.90;;;;;;5081418;28;20035;-68
2021/05/04 12:15:13;;;;;;;0.93;0.77;;;10.40;79.10;;;;;;5068109;28;20033;-68
2021/05/04 12:17:42;;;;;;;1.55;0.93;;;10.60;78.70;;;;;;5065092;28;20060;-69
2021/05/04 12:20:12;;;;;;;2.65;0.73;;;10.80;78.40;;;;;;5055243;28;20049;-69
2021/05/04 12:22:49;;;;;;;1.80;0.80;;;11.00;77.30;;;;;;5067914;28;20178;-68
2021/05/04 12:25:18;;;;;;;3.38;0.73;;;11.00;76.80;;;;;;5065216;28;20032;-68
2021/05/04 12:27:45;;;;;;;2.22;0.68;;;11.10;75.50;;;;;;5062251;28;20040;-69
2021/05/04 12:30:13;;;;;;;3.83;1.30;;;11.20;75.00;;;;;;5072385;28;20028;-68
2021/05/04 12:32:39;;;;;;;2.85;1.25;;;11.00;77.10;;;;;;5060514;28;20037;-67
2021/05/04 12:35:27;;;;;;;2.75;1.58;;;11.10;76.90;;;;;;5061210;28;20135;-68
2021/05/04 12:38:06;;;;;;;2.33;1.33;;;11.30;75.70;;;;;;5055470;28;20586;-68
2021/05/04 12:40:32;;;;;;;5.30;1.98;;;11.20;77.20;;;;;;5074815;28;20032;-68
2021/05/04 12:43:15;;;;;;;4.55;2.33;;;11.10;78.60;;;;;;5046131;28;20040;-67
2021/05/04 12:46:14;;;;;;;5.07;1.70;;;11.10;76.30;;;;;;5051778;28;20395;-67
2021/05/04 12:48:42;;;;;;;2.33;1.23;;;11.00;75.80;;;;;;5068559;28;20093;-67
2021/05/04 12:51:14;;;;;;;1.45;1.05;;;11.10;76.10;;;;;;5071437;28;20543;-67
2021/05/04 12:53:44;;;;;;;2.92;1.40;;;11.10;75.20;;;;;;5052540;28;20069;-67
2021/05/04 12:56:18;;;;;;;2.75;1.17;;;11.10;75.80;;;;;;5050260;28;20120;-68
2021/05/04 12:58:53;;;;;;;3.55;1.50;;;10.80;76.20;;;;;;5072114;28;20044;-67